Virginia — WCW4062 — position and weather

sailwx.info

Track history (hours):
 
Tides and Currents Weather Stations Pressure Air Temp Water Temp Dewpoint Dewpoint Depression Visibility Wind Speed Wind Dir Waves Ship Positions

Virginia

Owner: WEEKS MARINE, INC., CRANFORD, NJ. More information available from US FCC via Universal Licensing System and Coast Guard Vessel Documentation Center.

Last reported at 2016-May-29 13:16 UTC. Time now 2016-May-30 12:39 UTC.
Position N 32°18' W 080°46'.

MMSI: 366939110.

Date/timePositionNaut miles runAvg speedWind from/ knotsBaromVisibWave heightAir tempDewpointWater temp
2016-May-29 13:16N 32°18' W 080°46'0 0.0
2016-May-29 12:32N 32°18' W 080°46'0 0.0
2016-May-28 20:30N 32°18' W 080°46'0 0.0
2016-May-28 19:34N 32°18' W 080°46'0 0.0
2016-May-28 07:10N 32°18' W 080°46'0 0.0
2016-May-28 06:30N 32°18' W 080°46'0 0.0
2016-May-27 20:33N 32°18' W 080°46'2 1.7
2016-May-27 19:25N 32°16' W 080°44'0 0.0
2016-May-27 15:32N 32°16' W 080°44'1 0.1
2016-May-26 20:06N 32°17' W 080°45'1 0.9
2016-May-26 18:29N 32°16' W 080°44'0 0.0
2016-May-26 10:05N 32°16' W 080°44'0 0.0
2016-May-26 09:33N 32°16' W 080°44'0 0.0
2016-May-26 08:32N 32°16' W 080°44'0 0.0
2016-May-26 07:29N 32°16' W 080°44'0 0.0
2016-May-26 06:33N 32°16' W 080°44'0 0.0
2016-May-26 05:33N 32°16' W 080°44'0 0.0
2016-May-26 04:32N 32°16' W 080°44'0 0.0
2016-May-26 03:30N 32°16' W 080°44'0 0.0
2016-May-26 02:33N 32°16' W 080°44'0 0.0
2016-May-26 01:31N 32°16' W 080°44'0 0.0
2016-May-26 00:26N 32°16' W 080°44'0 0.0
2016-May-25 23:22N 32°16' W 080°44'0 0.0
2016-May-25 22:29N 32°16' W 080°44'0 0.0
2016-May-25 21:21N 32°16' W 080°44'0 0.0
2016-May-25 20:33N 32°16' W 080°44'0 0.0
2016-May-25 19:33N 32°16' W 080°44'0 0.1
2016-May-25 16:31N 32°16' W 080°45'12 4.1
2016-May-25 13:29N 32°09' W 080°32'234 6.9
2016-May-24 03:33N 34°32' W 076°52'7 7.1
2016-May-24 02:33N 34°32' W 076°43'7 6.9
2016-May-24 01:33N 34°30' W 076°35'7 5.8
2016-May-24 00:20N 34°30' W 076°26'6 7.2
2016-May-23 23:33N 34°35' W 076°22'141 6.1
2016-May-23 00:33N 36°54' W 075°57'7 7.0
2016-May-22 23:33N 36°60' W 076°02'112 7.0
2016-May-22 07:27N 38°50' W 076°25'8 7.7
2016-May-22 06:26N 38°58' W 076°24'23 7.1
2016-May-22 03:15N 39°19' W 076°13'5 6.7
2016-May-22 02:33N 39°22' W 076°08'5 4.8
2016-May-22 01:33N 39°24' W 076°03'2 1.8
2016-May-22 00:33N 39°26' W 076°01'3 2.6
2016-May-21 23:33N 39°28' W 075°59'5 5.1
2016-May-21 22:33N 39°31' W 075°54'5 5.5
2016-May-21 21:33N 39°32' W 075°47'6 6.3
2016-May-21 20:33N 39°33' W 075°39'4 4.3
2016-May-21 19:33N 39°36' W 075°34'6 6.2
2016-May-21 18:33N 39°41' W 075°31'6 6.1
2016-May-21 17:33N 39°47' W 075°28'4 4.4
2016-May-21 16:33N 39°49' W 075°23'1 1.1
2016-May-21 15:33N 39°49' W 075°22'0 0.0
2016-May-21 14:33N 39°49' W 075°22'0 0.0
2016-May-21 13:33N 39°49' W 075°22'0 0.0
2016-May-21 12:33N 39°49' W 075°22'0 0.0
2016-May-21 11:33N 39°49' W 075°22'0 0.0
2016-May-21 10:33N 39°49' W 075°22'0 0.0
2016-May-21 09:33N 39°49' W 075°22'0 0.0
2016-May-21 08:33N 39°49' W 075°22'0 0.0
2016-May-21 07:33N 39°49' W 075°22'0 0.0
2016-May-21 06:33N 39°49' W 075°22'0 0.0
2016-May-21 05:33N 39°49' W 075°22'0 0.0
2016-May-21 04:33N 39°49' W 075°22'0 0.0
2016-May-21 03:33N 39°49' W 075°22'0 0.0
2016-May-21 02:33N 39°49' W 075°22'0 0.0
2016-May-21 01:33N 39°49' W 075°22'0 0.0
2016-May-21 00:33N 39°49' W 075°22'0 0.0
2016-May-20 23:33N 39°49' W 075°22'0 0.0
2016-May-20 22:33N 39°49' W 075°22'0 0.0
2016-May-20 21:32N 39°49' W 075°22'0 0.0
2016-May-20 20:33N 39°49' W 075°22'0 0.2
2016-May-20 19:33N 39°50' W 075°22'2 2.2
2016-May-20 18:33N 39°51' W 075°19'8 8.1
2016-May-20 17:33N 39°53' W 075°09'5 2.3
2016-May-20 15:34N 39°57' W 075°08'0 0.0
2016-May-20 14:34N 39°57' W 075°08'0 0.0
2016-May-20 13:34N 39°57' W 075°08'0 0.0
2016-May-20 12:33N 39°57' W 075°08'0 0.0
2016-May-20 11:34N 39°57' W 075°08'0 0.0
2016-May-20 10:34N 39°57' W 075°08'0 0.0
2016-May-20 09:34N 39°57' W 075°08'0 0.0
2016-May-20 08:33N 39°57' W 075°08'0 0.0
2016-May-20 07:33N 39°57' W 075°08'0 0.0
2016-May-20 06:33N 39°57' W 075°08'0 0.0
2016-May-20 05:34N 39°57' W 075°08'0 0.0
2016-May-20 04:33N 39°57' W 075°08'0 0.0
2016-May-20 03:34N 39°57' W 075°08'0 0.0
2016-May-20 02:33N 39°57' W 075°08'0 0.0
2016-May-20 01:34N 39°57' W 075°08'0 0.0
2016-May-20 00:34N 39°57' W 075°08'0 0.0
2016-May-19 23:34N 39°57' W 075°08'0 0.0
2016-May-19 22:34N 39°57' W 075°08'0 0.0
2016-May-19 21:34N 39°57' W 075°08'0 0.0
2016-May-19 20:33N 39°57' W 075°08'0 0.0
2016-May-19 19:33N 39°57' W 075°08'0 0.0
2016-May-19 18:33N 39°57' W 075°08'0 0.0
2016-May-19 17:33N 39°57' W 075°08'0 0.0
2016-May-19 16:33N 39°57' W 075°08'0 0.0
2016-May-19 15:33N 39°57' W 075°08'0 0.0
2016-May-19 14:34N 39°57' W 075°08'0 0.0
2016-May-19 13:33N 39°57' W 075°08'  
Track history (hours):
 
Tides and Currents Weather Stations Pressure Air Temp Water Temp Dewpoint Dewpoint Depression Visibility Wind Speed Wind Dir Waves Ship Positions

Virginia

Owner: WEEKS MARINE, INC., CRANFORD, NJ. More information available from US FCC via Universal Licensing System and Coast Guard Vessel Documentation Center.

Last reported at 2016-May-29 13:16 UTC. Time now 2016-May-30 12:39 UTC.
Position N 32°18' W 080°46'.

MMSI: 366939110.

Date/timePositionNaut miles runAvg speedWind from/ knotsBaromVisibWave heightAir tempDewpointWater temp
2016-May-29 13:16N 32°18' W 080°46'0 0.0
2016-May-29 12:32N 32°18' W 080°46'0 0.0
2016-May-28 20:30N 32°18' W 080°46'0 0.0
2016-May-28 19:34N 32°18' W 080°46'0 0.0
2016-May-28 07:10N 32°18' W 080°46'0 0.0
2016-May-28 06:30N 32°18' W 080°46'0 0.0
2016-May-27 20:33N 32°18' W 080°46'2 1.7
2016-May-27 19:25N 32°16' W 080°44'0 0.0
2016-May-27 15:32N 32°16' W 080°44'1 0.1
2016-May-26 20:06N 32°17' W 080°45'1 0.9
2016-May-26 18:29N 32°16' W 080°44'0 0.0
2016-May-26 10:05N 32°16' W 080°44'0 0.0
2016-May-26 09:33N 32°16' W 080°44'0 0.0
2016-May-26 08:32N 32°16' W 080°44'0 0.0
2016-May-26 07:29N 32°16' W 080°44'0 0.0
2016-May-26 06:33N 32°16' W 080°44'0 0.0
2016-May-26 05:33N 32°16' W 080°44'0 0.0
2016-May-26 04:32N 32°16' W 080°44'0 0.0
2016-May-26 03:30N 32°16' W 080°44'0 0.0
2016-May-26 02:33N 32°16' W 080°44'0 0.0
2016-May-26 01:31N 32°16' W 080°44'0 0.0
2016-May-26 00:26N 32°16' W 080°44'0 0.0
2016-May-25 23:22N 32°16' W 080°44'0 0.0
2016-May-25 22:29N 32°16' W 080°44'0 0.0
2016-May-25 21:21N 32°16' W 080°44'0 0.0
2016-May-25 20:33N 32°16' W 080°44'0 0.0
2016-May-25 19:33N 32°16' W 080°44'0 0.1
2016-May-25 16:31N 32°16' W 080°45'12 4.1
2016-May-25 13:29N 32°09' W 080°32'234 6.9
2016-May-24 03:33N 34°32' W 076°52'7 7.1
2016-May-24 02:33N 34°32' W 076°43'7 6.9
2016-May-24 01:33N 34°30' W 076°35'7 5.8
2016-May-24 00:20N 34°30' W 076°26'6 7.2
2016-May-23 23:33N 34°35' W 076°22'141 6.1
2016-May-23 00:33N 36°54' W 075°57'7 7.0
2016-May-22 23:33N 36°60' W 076°02'112 7.0
2016-May-22 07:27N 38°50' W 076°25'8 7.7
2016-May-22 06:26N 38°58' W 076°24'23 7.1
2016-May-22 03:15N 39°19' W 076°13'5 6.7
2016-May-22 02:33N 39°22' W 076°08'5 4.8
2016-May-22 01:33N 39°24' W 076°03'2 1.8
2016-May-22 00:33N 39°26' W 076°01'3 2.6
2016-May-21 23:33N 39°28' W 075°59'5 5.1
2016-May-21 22:33N 39°31' W 075°54'5 5.5
2016-May-21 21:33N 39°32' W 075°47'6 6.3
2016-May-21 20:33N 39°33' W 075°39'4 4.3
2016-May-21 19:33N 39°36' W 075°34'6 6.2
2016-May-21 18:33N 39°41' W 075°31'6 6.1
2016-May-21 17:33N 39°47' W 075°28'4 4.4
2016-May-21 16:33N 39°49' W 075°23'1 1.1
2016-May-21 15:33N 39°49' W 075°22'0 0.0
2016-May-21 14:33N 39°49' W 075°22'0 0.0
2016-May-21 13:33N 39°49' W 075°22'0 0.0
2016-May-21 12:33N 39°49' W 075°22'0 0.0
2016-May-21 11:33N 39°49' W 075°22'0 0.0
2016-May-21 10:33N 39°49' W 075°22'0 0.0
2016-May-21 09:33N 39°49' W 075°22'0 0.0
2016-May-21 08:33N 39°49' W 075°22'0 0.0
2016-May-21 07:33N 39°49' W 075°22'0 0.0
2016-May-21 06:33N 39°49' W 075°22'0 0.0
2016-May-21 05:33N 39°49' W 075°22'0 0.0
2016-May-21 04:33N 39°49' W 075°22'0 0.0
2016-May-21 03:33N 39°49' W 075°22'0 0.0
2016-May-21 02:33N 39°49' W 075°22'0 0.0
2016-May-21 01:33N 39°49' W 075°22'0 0.0
2016-May-21 00:33N 39°49' W 075°22'0 0.0
2016-May-20 23:33N 39°49' W 075°22'0 0.0
2016-May-20 22:33N 39°49' W 075°22'0 0.0
2016-May-20 21:32N 39°49' W 075°22'0 0.0
2016-May-20 20:33N 39°49' W 075°22'0 0.2
2016-May-20 19:33N 39°50' W 075°22'2 2.2
2016-May-20 18:33N 39°51' W 075°19'8 8.1
2016-May-20 17:33N 39°53' W 075°09'5 2.3
2016-May-20 15:34N 39°57' W 075°08'0 0.0
2016-May-20 14:34N 39°57' W 075°08'0 0.0
2016-May-20 13:34N 39°57' W 075°08'0 0.0
2016-May-20 12:33N 39°57' W 075°08'0 0.0
2016-May-20 11:34N 39°57' W 075°08'0 0.0
2016-May-20 10:34N 39°57' W 075°08'0 0.0
2016-May-20 09:34N 39°57' W 075°08'0 0.0
2016-May-20 08:33N 39°57' W 075°08'0 0.0
2016-May-20 07:33N 39°57' W 075°08'0 0.0
2016-May-20 06:33N 39°57' W 075°08'0 0.0
2016-May-20 05:34N 39°57' W 075°08'0 0.0
2016-May-20 04:33N 39°57' W 075°08'0 0.0
2016-May-20 03:34N 39°57' W 075°08'0 0.0
2016-May-20 02:33N 39°57' W 075°08'0 0.0
2016-May-20 01:34N 39°57' W 075°08'0 0.0
2016-May-20 00:34N 39°57' W 075°08'0 0.0
2016-May-19 23:34N 39°57' W 075°08'0 0.0
2016-May-19 22:34N 39°57' W 075°08'0 0.0
2016-May-19 21:34N 39°57' W 075°08'0 0.0
2016-May-19 20:33N 39°57' W 075°08'0 0.0
2016-May-19 19:33N 39°57' W 075°08'0 0.0
2016-May-19 18:33N 39°57' W 075°08'0 0.0
2016-May-19 17:33N 39°57' W 075°08'0 0.0
2016-May-19 16:33N 39°57' W 075°08'0 0.0
2016-May-19 15:33N 39°57' W 075°08'0 0.0
2016-May-19 14:34N 39°57' W 075°08'0 0.0
2016-May-19 13:33N 39°57' W 075°08'  

Dump ship's entire track history